Latest Weather Observations for Coolangatta

IDQ60901

Issued at 12:11 pm EST Tuesday 23 December 2014 (issued every 10 minutes, with the page automatically refreshed every 10 minutes)

About weather observations | Map of Brisbane area stations | Latest observations for Brisbane area | Other Formats
Station Details ID: 040717 Name: COOLANGATTA Lat: -28.17 Lon: 153.51 Height: 4.0 m
Data from the previous 72 hours. | See also: Recent months at Coolangatta
Date/Time
EST
Tmp

°C
App
Tmp
°C
Dew
Point
°C
Rel
Hum
%
Delta-T

°C
Wind Press
QNH
hPa
Press
MSL
hPa
Rain
since
9 am
mm
Dir
 
Spd
km/h
Gust
km/h
Spd
kts
Gust
kts
23/12:00pm 27.0 25.3 17.2 55 6.1 NE 22 28 12 15 1016.4 1016.3 0.0
23/11:30am 27.1 25.7 17.0 54 6.3 ENE 20 28 11 15 1016.6 1016.5 0.0
23/11:00am 26.6 25.3 16.8 55 6.1 NE 19 26 10 14 1016.9 1016.8 0.0
23/10:30am 26.6 25.9 17.4 57 5.8 ENE 17 22 9 12 1017.1 1017.0 0.0
23/10:00am 25.5 23.9 16.1 56 5.7 ENE 19 22 10 12 1017.4 1017.3 0.0
23/09:30am 25.1 24.4 16.3 58 5.4 NE 15 20 8 11 1017.4 1017.3 0.0
23/09:00am 25.5 25.2 16.4 57 5.6 E 13 19 7 10 1017.4 1017.3 0.0
23/08:30am 24.7 24.3 16.2 59 5.2 ESE 13 20 7 11 1017.4 1017.3 0.0
23/08:00am 25.1 25.6 16.5 59 5.3 SSE 9 15 5 8 1017.1 1017.0 0.0
23/07:30am 24.5 24.6 16.5 61 4.9 SSE 11 15 6 8 1017.3 1017.2 0.0
23/07:00am 23.2 24.0 17.4 70 3.6 SSE 9 13 5 7 1017.2 1017.1 0.0
23/06:00am 19.0 20.1 16.6 86 1.4 SW 6 7 3 4 1016.8 1016.7 0.0
23/05:30am 18.3 20.3 16.1 87 1.3 CALM 0 0 0 0 1016.5 1016.4 0.0
23/05:00am 18.2 20.2 16.0 87 1.3 CALM 0 0 0 0 1016.3 1016.2 0.0
23/04:30am 17.7 18.6 15.1 85 1.5 S 4 7 2 4 1016.2 1016.1 0.0
23/04:00am 17.9 18.3 15.3 85 1.5 SSW 7 9 4 5 1016.0 1015.9 0.0
23/03:30am 18.0 19.7 15.3 84 1.6 CALM 0 0 0 0 1015.9 1015.8 0.0
23/03:00am 18.7 18.6 16.1 85 1.5 SW 11 13 6 7 1015.8 1015.7 0.0
23/02:00am 18.9 20.6 16.1 84 1.7 WSW 2 6 1 3 1016.2 1016.1 0.0
23/01:30am 19.2 19.6 16.2 83 1.8 SW 9 13 5 7 1016.6 1016.5 0.0
23/01:00am 18.8 18.9 16.4 86 1.4 SW 11 15 6 8 1017.0 1016.9 0.0
23/12:30am 18.5 19.2 15.6 83 1.7 SW 6 9 3 5 1017.2 1017.1 0.0
23/12:00am 18.9 19.8 16.5 86 1.4 SW 7 11 4 6 1017.4 1017.3 0.0
 
Date/Time
EST
Tmp

°C
App
Tmp
°C
Dew
Point
°C
Rel
Hum
%
Delta-T

°C
Wind Press
QNH
hPa
Press
MSL
hPa
Rain
since
9 am
mm
Dir
 
Spd
km/h
Gust
km/h
Spd
kts
Gust
kts
22/11:30pm 19.2 20.2 16.4 84 1.7 WSW 6 11 3 6 1017.7 1017.6 0.0
22/11:00pm 19.9 20.8 16.5 81 2.0 SW 7 9 4 5 1018.0 1017.9 0.0
22/10:30pm 20.3 20.5 16.7 80 2.2 WSW 11 15 6 8 1018.3 1018.2 0.0
22/10:00pm 21.0 21.5 15.5 71 3.3 SSW 7 9 4 5 1018.2 1018.1 0.0
22/09:30pm 21.5 21.5 15.1 67 3.8 SE 9 11 5 6 1018.0 1017.9 0.0
22/09:00pm 22.1 21.4 15.5 66 3.9 SE 13 17 7 9 1017.8 1017.7 0.0
22/08:30pm 22.4 21.8 15.7 66 4.0 SE 13 19 7 10 1017.7 1017.6 0.0
22/08:00pm 22.7 21.9 16.0 66 4.0 ESE 15 20 8 11 1017.6 1017.5 0.0
22/07:30pm 23.0 21.9 16.3 66 4.1 SE 17 20 9 11 1017.5 1017.4 0.0
22/07:00pm 23.1 21.9 16.2 65 4.2 SE 17 20 9 11 1017.4 1017.3 0.0
22/06:30pm 23.4 22.1 15.7 62 4.6 SE 17 20 9 11 1017.1 1017.0 0.0
22/06:00pm 24.4 22.6 15.6 58 5.3 ESE 19 24 10 13 1016.9 1016.8 0.0
22/05:30pm 24.8 23.0 16.0 58 5.4 SE 20 28 11 15 1016.6 1016.5 0.0
22/05:00pm 24.5 22.7 16.0 59 5.2 SE 20 28 11 15 1016.3 1016.2 0.0
22/04:30pm 25.9 23.8 16.2 55 5.9 ESE 22 28 12 15 1016.0 1015.9 0.0
22/04:00pm 26.5 25.0 16.7 55 6.1 SE 20 33 11 18 1016.2 1016.1 0.0
22/03:30pm 26.2 24.4 15.9 53 6.3 ESE 20 30 11 16 1016.5 1016.4 0.0
22/03:00pm 26.4 23.6 15.4 50 6.7 ESE 24 32 13 17 1016.7 1016.6 0.0
22/02:30pm 27.2 25.4 15.9 50 6.9 ESE 20 32 11 17 1016.8 1016.7 0.0
22/02:00pm 26.8 24.5 15.8 51 6.7 ESE 22 33 12 18 1017.1 1017.0 0.0
22/01:30pm 26.8 24.1 15.5 50 6.9 ESE 24 39 13 21 1017.3 1017.2 0.0
22/01:00pm 26.7 23.8 16.0 52 6.6 ESE 26 35 14 19 1017.7 1017.6 0.0
22/12:30pm 26.6 24.1 16.2 52 6.4 ESE 24 35 13 19 1018.0 1017.9 0.0
22/12:00pm 27.0 25.4 16.6 53 6.4 ESE 20 32 11 17 1018.4 1018.3 0.0
22/11:30am 26.1 24.0 16.1 54 6.1 E 22 35 12 19 1018.7 1018.6 0.0
22/11:00am 26.6 25.1 16.8 55 6.1 SE 20 28 11 15 1018.8 1018.7 0.0
22/10:30am 27.9 26.9 18.0 55 6.3 ESE 20 32 11 17 1018.7 1018.6 0.0
22/10:00am 27.3 25.1 16.0 50 6.9 ESE 22 32 12 17 1018.9 1018.8 0.0
22/09:30am 26.1 24.0 15.2 51 6.6 ESE 20 28 11 15 1018.8 1018.7 0.0
22/09:00am 26.7 25.5 16.0 52 6.5 ESE 17 24 9 13 1018.8 1018.7 0.0
22/08:30am 26.6 25.4 16.2 52 6.4 SE 17 24 9 13 1018.5 1018.4 0.0
22/08:00am 24.4 23.2 16.1 60 5.0 SSE 17 24 9 13 1018.4 1018.3 0.0
22/07:30am 24.0 24.3 17.0 65 4.3 SSE 11 17 6 9 1018.3 1018.2 0.0
22/07:00am 23.9 24.7 17.2 66 4.1 SSE 9 15 5 8 1018.1 1018.0 0.0
22/06:30am 23.2 24.4 17.4 70 3.6 SSE 7 9 4 5 1017.9 1017.8 0.0
22/06:00am 21.1 23.6 17.3 79 2.3 CALM 0 6 0 3 1017.6 1017.5 0.0
22/05:30am 19.6 19.8 16.8 84 1.7 WSW 11 13 6 7 1017.7 1017.6 0.0
22/05:00am 19.8 21.0 16.8 83 1.8 SSW 6 7 3 4 1017.1 1017.0 0.0
22/04:30am 20.0 21.1 17.0 83 1.8 SW 7 11 4 6 1016.7 1016.6 0.0
22/04:00am 20.3 21.4 17.1 82 1.9 SW 7 9 4 5 1016.4 1016.3 0.0
22/03:30am 20.8 21.2 17.2 80 2.2 WSW 11 13 6 7 1016.4 1016.3 0.0
22/03:00am 21.5 22.7 17.3 77 2.6 WSW 7 13 4 7 1016.3 1016.2 0.0
22/02:30am 21.9 22.6 16.2 70 3.4 SE 7 9 4 5 1016.6 1016.5 0.0
22/02:00am 22.8 23.2 16.4 67 3.9 ESE 9 15 5 8 1016.7 1016.6 0.0
22/01:30am 22.9 22.9 16.2 66 4.1 ESE 11 17 6 9 1016.8 1016.7 0.0
22/01:00am 23.0 22.6 16.1 65 4.2 ESE 13 17 7 9 1017.3 1017.2 0.0
22/12:30am 23.1 23.1 16.2 65 4.2 ESE 11 13 6 7 1018.1 1018.0 0.0
22/12:00am 23.3 23.4 16.4 65 4.2 E 11 19 6 10 1018.4 1018.3 0.0
 
Date/Time
EST
Tmp

°C
App
Tmp
°C
Dew
Point
°C
Rel
Hum
%
Delta-T

°C
Wind Press
QNH
hPa
Press
MSL
hPa
Rain
since
9 am
mm
Dir
 
Spd
km/h
Gust
km/h
Spd
kts
Gust
kts
21/11:30pm 23.4 22.6 16.2 64 4.4 E 15 20 8 11 1018.6 1018.5 0.0
21/11:00pm 23.4 22.6 16.2 64 4.4 E 15 20 8 11 1018.8 1018.7 0.0
21/10:30pm 23.4 22.6 16.0 63 4.5 E 15 20 8 11 1018.7 1018.6 0.0
21/10:00pm 23.4 22.6 16.0 63 4.5 E 15 20 8 11 1018.6 1018.5 0.0
21/09:30pm 23.6 22.2 15.6 61 4.8 E 17 24 9 13 1018.5 1018.4 0.0
21/09:00pm 23.6 22.3 15.9 62 4.6 E 17 24 9 13 1018.6 1018.5 0.0
21/08:30pm 23.7 22.9 16.2 63 4.6 E 15 22 8 12 1018.5 1018.4 0.0
21/08:00pm 23.8 22.1 15.8 61 4.8 E 19 24 10 13 1018.4 1018.3 0.0
21/07:30pm 23.9 23.0 15.9 61 4.8 E 15 22 8 12 1018.2 1018.1 0.0
21/07:00pm 23.9 22.7 16.2 62 4.7 E 17 24 9 13 1017.7 1017.6 0.0
21/06:30pm 23.9 22.4 16.4 63 4.6 E 19 24 10 13 1017.3 1017.2 0.0
21/06:00pm 24.0 23.1 16.8 64 4.4 ENE 17 24 9 13 1017.1 1017.0 0.0
21/05:30pm 24.2 22.7 16.7 63 4.6 E 20 26 11 14 1016.8 1016.7 0.0
21/05:00pm 24.4 23.0 16.9 63 4.6 ENE 20 28 11 15 1016.7 1016.6 0.0
21/04:30pm 24.8 23.4 17.0 62 4.8 ENE 20 26 11 14 1016.5 1016.4 0.0
21/04:00pm 24.9 23.7 17.1 62 4.8 ENE 19 24 10 13 1016.6 1016.5 0.0
21/03:30pm 25.1 23.9 17.0 60 5.0 ENE 19 26 10 14 1016.6 1016.5 0.0
21/03:00pm 25.8 24.7 17.2 59 5.3 NE 19 26 10 14 1016.6 1016.5 0.0
21/02:30pm 26.2 25.0 17.0 57 5.7 ENE 19 26 10 14 1016.9 1016.8 0.0
21/02:00pm 25.7 24.3 17.1 59 5.3 NE 20 26 11 14 1017.0 1016.9 0.0
21/01:30pm 25.3 24.3 17.5 62 4.9 NE 19 24 10 13 1017.2 1017.1 0.0
21/01:00pm 26.9 26.1 18.5 60 5.3 ENE 20 26 11 14 1017.4 1017.3 0.0
21/12:30pm 26.2 25.8 18.8 63 4.7 ENE 19 24 10 13 1017.8 1017.7 0.0
21/12:00pm 26.9 27.5 17.7 57 5.8 E 11 20 6 11 1018.1 1018.0 0.0
21/11:30am 25.4 25.4 17.3 61 5.0 ENE 13 22 7 12 1018.6 1018.5 0.0
21/11:00am 25.3 25.5 17.7 62 4.8 NE 13 19 7 10 1018.9 1018.8 0.0
21/10:30am 25.0 24.9 17.0 61 5.0 NE 13 17 7 9 1019.1 1019.0 0.0
21/10:00am 24.7 24.3 17.2 63 4.6 NE 15 20 8 11 1019.1 1019.0 0.0
21/09:30am 25.4 25.2 17.6 62 4.9 NE 15 20 8 11 1019.0 1018.9 0.0
21/09:00am 25.6 25.4 17.5 61 5.1 ENE 15 20 8 11 1018.8 1018.7 0.0
21/08:30am 25.6 25.0 17.5 61 5.1 ENE 17 24 9 13 1018.7 1018.6 0.0
21/08:00am 25.1 23.6 17.6 63 4.7 ENE 22 26 12 14 1018.6 1018.5 0.0
21/07:30am 24.8 24.5 17.3 63 4.7 NE 15 20 8 11 1018.5 1018.4 0.0
21/07:00am 23.5 24.5 17.7 70 3.6 E 9 13 5 7 1018.3 1018.2 0.0
21/06:30am 22.9 22.9 18.0 74 3.1 E 15 19 8 10 1018.2 1018.1 0.0
21/06:00am 22.9 23.6 17.1 70 3.6 E 9 15 5 8 1017.8 1017.7 0.0
21/05:30am 22.5 22.8 17.8 75 2.9 ESE 13 20 7 11 1017.4 1017.3 0.0
21/05:00am 23.4 23.3 16.9 67 4.0 ENE 13 17 7 9 1017.0 1016.9 0.0
21/04:30am 23.5 23.4 17.0 67 4.0 ENE 13 17 7 9 1016.8 1016.7 0.0
21/04:00am 23.5 23.3 16.8 66 4.1 ENE 13 17 7 9 1016.5 1016.4 0.0
21/03:30am 23.5 23.3 16.8 66 4.1 ENE 13 19 7 10 1016.4 1016.3 0.0
21/03:00am 23.5 22.8 16.3 64 4.4 ENE 15 20 8 11 1016.5 1016.4 0.0
21/02:30am 23.5 23.3 16.8 66 4.1 E 13 17 7 9 1016.4 1016.3 0.0
21/02:00am 23.4 23.1 16.4 64 4.3 E 13 19 7 10 1016.6 1016.5 0.0
21/01:30am 23.5 23.2 16.5 65 4.3 E 13 19 7 10 1016.8 1016.7 0.0
21/01:00am 23.4 22.6 16.2 64 4.4 E 15 20 8 11 1017.1 1017.0 0.0
21/12:30am 23.5 23.1 16.3 64 4.4 ESE 13 20 7 11 1017.4 1017.3 0.0
21/12:00am 23.6 23.4 16.6 65 4.3 ESE 13 20 7 11 1017.5 1017.4 0.0
 
Date/Time
EST
Tmp

°C
App
Tmp
°C
Dew
Point
°C
Rel
Hum
%
Delta-T

°C
Wind Press
QNH
hPa
Press
MSL
hPa
Rain
since
9 am
mm
Dir
 
Spd
km/h
Gust
km/h
Spd
kts
Gust
kts
20/11:30pm 23.7 23.2 17.0 66 4.1 E 15 20 8 11 1017.6 1017.5 0.0
20/11:00pm 23.7 23.2 17.0 66 4.1 E 15 24 8 13 1017.9 1017.8 0.0
20/10:30pm 23.6 22.7 16.9 66 4.1 E 17 22 9 12 1018.1 1018.0 0.0
20/10:00pm 23.7 23.2 17.0 66 4.1 E 15 22 8 12 1018.1 1018.0 0.0
20/09:30pm 23.7 23.2 17.0 66 4.1 ESE 15 19 8 10 1018.2 1018.1 0.0
20/09:00pm 23.8 23.8 17.1 66 4.1 E 13 20 7 11 1017.9 1017.8 0.0
20/08:30pm 23.7 23.6 17.0 66 4.1 ESE 13 19 7 10 1017.5 1017.4 0.0
20/08:00pm 23.7 22.7 16.7 65 4.3 ESE 17 20 9 11 1016.9 1016.8 0.0
20/07:30pm 24.0 23.0 16.5 63 4.6 E 17 24 9 13 1016.8 1016.7 0.0
20/07:00pm 24.1 23.5 16.6 63 4.6 ESE 15 20 8 11 1016.4 1016.3 0.0
20/06:30pm 24.2 23.0 16.2 61 4.9 E 17 22 9 12 1016.1 1016.0 0.0
20/06:00pm 24.4 22.9 16.4 61 4.9 E 19 24 10 13 1015.6 1015.5 0.0
20/05:30pm 24.7 23.1 16.4 60 5.1 ESE 20 26 11 14 1015.2 1015.1 0.0
20/05:00pm 24.8 23.3 16.8 61 4.9 ESE 20 26 11 14 1014.8 1014.7 0.0
20/04:30pm 25.5 24.3 17.4 61 5.1 E 20 32 11 17 1014.5 1014.4 0.0
20/04:00pm 25.0 23.5 16.4 59 5.3 E 19 28 10 15 1014.4 1014.3 0.0
20/03:30pm 26.4 25.8 17.5 58 5.6 ESE 17 22 9 12 1014.6 1014.5 0.0
20/03:00pm 25.3 23.7 16.4 57 5.5 E 20 24 11 13 1014.9 1014.8 0.0
20/02:30pm 26.7 25.0 17.2 56 5.9 E 22 33 12 18 1015.0 1014.9 0.0
20/02:00pm 26.8 25.3 16.4 53 6.4 ESE 19 28 10 15 1015.4 1015.3 0.0
20/01:30pm 26.7 24.5 16.9 55 6.1 E 24 32 13 17 1015.5 1015.4 0.0
20/01:00pm 27.3 25.1 16.9 53 6.5 E 24 32 13 17 1015.8 1015.7 0.0
20/12:30pm 25.9 24.3 16.5 56 5.8 ESE 20 26 11 14 1016.1 1016.0 0.0

Latest Capital City Observations: Canberra | Sydney | Melbourne | Brisbane | Adelaide | Perth | Hobart | Darwin

Other Formats:

Comma delimited format used in spreadsheet applications
http://www.bom.gov.au/fwo/IDQ60901/IDQ60901.94592.axf

JavaScript Object Notation format (JSON) in row-major order
http://www.bom.gov.au/fwo/IDQ60901/IDQ60901.94592.json